Reedsville, Ohio
Current Conditions -  °F | °C
As of 10:53 PM on Wednesday 22 Oct 2014 (Local Time) from KPKB Reporting Station
Overcast Overcast  
Wind Chill: 47°   Ceiling: 2800
Heat Index: 49°   Visibility: 10mi
Dew Point: 41°   Wind: 5mph
Humidity: 74%   Direction: NA
Pressure: 30.25"   Gusts: NA
Location:  39.12°N, 81.75°W
Report Text: KPKB 230253Z VRB04KT 10SM OVC028 09/05 A3025 RMK AO2 SLP243 T00940050 51006
Loading
Personal Weather Stations






























Interactive Weather Map
Tropical Storm Tracking
New forecast layout! Learn more

10-Day Weather Forecast

Advertisements
Track Severe Weather on mobile